sensor_id;sensor_type;location;lat;lon;timestamp;temperature;humidity
39019;DHT22;24786;51.984;5.872;2024-01-07T00:00:27;1.90;99.90
39019;DHT22;24786;51.984;5.872;2024-01-07T00:02:53;1.90;99.90
39019;DHT22;24786;51.984;5.872;2024-01-07T00:05:18;1.90;99.90
39019;DHT22;24786;51.984;5.872;2024-01-07T00:07:43;1.90;99.90
39019;DHT22;24786;51.984;5.872;2024-01-07T00:10:09;1.90;99.90
39019;DHT22;24786;51.984;5.872;2024-01-07T00:12:35;1.90;99.90
39019;DHT22;24786;51.984;5.872;2024-01-07T00:15:00;1.90;99.90
39019;DHT22;24786;51.984;5.872;2024-01-07T00:17:26;2.00;99.90
39019;DHT22;24786;51.984;5.872;2024-01-07T00:19:51;1.90;99.90
39019;DHT22;24786;51.984;5.872;2024-01-07T00:22:17;1.90;99.90
39019;DHT22;24786;51.984;5.872;2024-01-07T00:24:43;1.90;99.90
39019;DHT22;24786;51.984;5.872;2024-01-07T00:27:08;1.90;99.90
39019;DHT22;24786;51.984;5.872;2024-01-07T00:29:34;1.90;99.90
39019;DHT22;24786;51.984;5.872;2024-01-07T00:32:01;1.90;99.90
39019;DHT22;24786;51.984;5.872;2024-01-07T00:34:26;1.90;99.90
39019;DHT22;24786;51.984;5.872;2024-01-07T00:36:52;1.90;99.90
39019;DHT22;24786;51.984;5.872;2024-01-07T00:39:17;1.90;99.90
39019;DHT22;24786;51.984;5.872;2024-01-07T00:41:42;1.90;99.90
39019;DHT22;24786;51.984;5.872;2024-01-07T00:44:08;1.90;99.90
39019;DHT22;24786;51.984;5.872;2024-01-07T00:46:33;1.90;99.90
39019;DHT22;24786;51.984;5.872;2024-01-07T00:48:59;1.90;99.90
39019;DHT22;24786;51.984;5.872;2024-01-07T00:51:24;1.90;99.90
39019;DHT22;24786;51.984;5.872;2024-01-07T00:53:50;1.90;99.90
39019;DHT22;24786;51.984;5.872;2024-01-07T00:56:15;1.90;99.90
39019;DHT22;24786;51.984;5.872;2024-01-07T00:58:41;1.80;99.90
39019;DHT22;24786;51.984;5.872;2024-01-07T01:01:06;1.90;99.90
39019;DHT22;24786;51.984;5.872;2024-01-07T01:03:31;1.90;99.90
39019;DHT22;24786;51.984;5.872;2024-01-07T01:05:57;1.90;99.90
39019;DHT22;24786;51.984;5.872;2024-01-07T01:08:22;1.90;99.90
39019;DHT22;24786;51.984;5.872;2024-01-07T01:10:48;1.90;99.90
39019;DHT22;24786;51.984;5.872;2024-01-07T01:13:14;1.90;99.90
39019;DHT22;24786;51.984;5.872;2024-01-07T01:15:39;1.90;99.90
39019;DHT22;24786;51.984;5.872;2024-01-07T01:18:05;1.90;99.90
39019;DHT22;24786;51.984;5.872;2024-01-07T01:20:30;1.90;99.90
39019;DHT22;24786;51.984;5.872;2024-01-07T01:22:56;1.90;99.90
39019;DHT22;24786;51.984;5.872;2024-01-07T01:25:21;1.90;99.90
39019;DHT22;24786;51.984;5.872;2024-01-07T01:27:47;1.90;99.90
39019;DHT22;24786;51.984;5.872;2024-01-07T01:30:12;1.90;99.90
39019;DHT22;24786;51.984;5.872;2024-01-07T01:32:38;1.90;99.90
39019;DHT22;24786;51.984;5.872;2024-01-07T01:35:04;1.90;99.90
39019;DHT22;24786;51.984;5.872;2024-01-07T01:37:30;1.90;99.90
39019;DHT22;24786;51.984;5.872;2024-01-07T01:40:00;1.90;99.90
39019;DHT22;24786;51.984;5.872;2024-01-07T01:42:26;1.90;99.90
39019;DHT22;24786;51.984;5.872;2024-01-07T01:44:51;1.90;99.90
39019;DHT22;24786;51.984;5.872;2024-01-07T01:47:18;1.90;99.90
39019;DHT22;24786;51.984;5.872;2024-01-07T01:49:45;1.90;99.90
39019;DHT22;24786;51.984;5.872;2024-01-07T01:52:11;1.90;99.90
39019;DHT22;24786;51.984;5.872;2024-01-07T01:54:37;1.90;99.90
39019;DHT22;24786;51.984;5.872;2024-01-07T01:57:02;1.90;99.90
39019;DHT22;24786;51.984;5.872;2024-01-07T01:59:28;1.90;99.90
39019;DHT22;24786;51.984;5.872;2024-01-07T02:01:53;1.90;99.90
39019;DHT22;24786;51.984;5.872;2024-01-07T02:04:20;1.90;99.90
39019;DHT22;24786;51.984;5.872;2024-01-07T02:06:45;1.90;99.90
39019;DHT22;24786;51.984;5.872;2024-01-07T02:09:11;1.90;99.90
39019;DHT22;24786;51.984;5.872;2024-01-07T02:11:36;1.90;99.90
39019;DHT22;24786;51.984;5.872;2024-01-07T02:14:02;1.80;99.90
39019;DHT22;24786;51.984;5.872;2024-01-07T02:16:27;1.80;99.90
39019;DHT22;24786;51.984;5.872;2024-01-07T02:18:53;1.80;99.90
39019;DHT22;24786;51.984;5.872;2024-01-07T02:21:18;1.80;99.90
39019;DHT22;24786;51.984;5.872;2024-01-07T02:23:44;1.80;99.90
39019;DHT22;24786;51.984;5.872;2024-01-07T02:26:09;1.80;99.90
39019;DHT22;24786;51.984;5.872;2024-01-07T02:28:35;1.80;99.90
39019;DHT22;24786;51.984;5.872;2024-01-07T02:31:00;1.80;99.90
39019;DHT22;24786;51.984;5.872;2024-01-07T02:33:26;1.80;99.90
39019;DHT22;24786;51.984;5.872;2024-01-07T02:35:51;1.80;99.90
39019;DHT22;24786;51.984;5.872;2024-01-07T02:38:17;1.80;99.90
39019;DHT22;24786;51.984;5.872;2024-01-07T02:40:42;1.80;99.90
39019;DHT22;24786;51.984;5.872;2024-01-07T02:43:08;1.70;99.90
39019;DHT22;24786;51.984;5.872;2024-01-07T02:45:33;1.70;99.90
39019;DHT22;24786;51.984;5.872;2024-01-07T02:47:59;1.70;99.90
39019;DHT22;24786;51.984;5.872;2024-01-07T02:50:24;1.70;99.90
39019;DHT22;24786;51.984;5.872;2024-01-07T02:52:50;1.70;99.90
39019;DHT22;24786;51.984;5.872;2024-01-07T02:55:15;1.70;99.90
39019;DHT22;24786;51.984;5.872;2024-01-07T02:57:41;1.70;99.90
39019;DHT22;24786;51.984;5.872;2024-01-07T03:00:06;1.70;99.90
39019;DHT22;24786;51.984;5.872;2024-01-07T03:02:33;1.70;99.90
39019;DHT22;24786;51.984;5.872;2024-01-07T03:04:58;1.70;99.90
39019;DHT22;24786;51.984;5.872;2024-01-07T03:07:24;1.60;99.90
39019;DHT22;24786;51.984;5.872;2024-01-07T03:09:49;1.60;99.90
39019;DHT22;24786;51.984;5.872;2024-01-07T03:12:15;1.60;99.90
39019;DHT22;24786;51.984;5.872;2024-01-07T03:14:41;1.70;99.90
39019;DHT22;24786;51.984;5.872;2024-01-07T03:17:06;1.60;99.90
39019;DHT22;24786;51.984;5.872;2024-01-07T03:19:32;1.60;99.90
39019;DHT22;24786;51.984;5.872;2024-01-07T03:21:58;1.60;99.90
39019;DHT22;24786;51.984;5.872;2024-01-07T03:24:23;1.60;99.90
39019;DHT22;24786;51.984;5.872;2024-01-07T03:26:49;1.70;99.90
39019;DHT22;24786;51.984;5.872;2024-01-07T03:29:15;1.70;99.90
39019;DHT22;24786;51.984;5.872;2024-01-07T03:31:40;1.70;99.90
39019;DHT22;24786;51.984;5.872;2024-01-07T03:34:06;1.70;99.90
39019;DHT22;24786;51.984;5.872;2024-01-07T03:36:31;1.70;99.90
39019;DHT22;24786;51.984;5.872;2024-01-07T03:38:57;1.70;99.90
39019;DHT22;24786;51.984;5.872;2024-01-07T03:41:22;1.60;99.90
39019;DHT22;24786;51.984;5.872;2024-01-07T03:43:48;1.60;99.90
39019;DHT22;24786;51.984;5.872;2024-01-07T03:46:14;1.70;99.90
39019;DHT22;24786;51.984;5.872;2024-01-07T03:48:40;1.60;99.90
39019;DHT22;24786;51.984;5.872;2024-01-07T03:51:06;1.60;99.90
39019;DHT22;24786;51.984;5.872;2024-01-07T03:53:32;1.60;99.90
39019;DHT22;24786;51.984;5.872;2024-01-07T03:55:57;1.50;99.90
39019;DHT22;24786;51.984;5.872;2024-01-07T03:58:23;1.60;99.90
39019;DHT22;24786;51.984;5.872;2024-01-07T04:00:48;1.60;99.90
39019;DHT22;24786;51.984;5.872;2024-01-07T04:03:13;1.60;99.90
39019;DHT22;24786;51.984;5.872;2024-01-07T04:05:39;1.60;99.90
39019;DHT22;24786;51.984;5.872;2024-01-07T04:08:04;1.60;99.90
39019;DHT22;24786;51.984;5.872;2024-01-07T04:10:30;1.60;99.90
39019;DHT22;24786;51.984;5.872;2024-01-07T04:12:55;1.60;99.90
39019;DHT22;24786;51.984;5.872;2024-01-07T04:15:21;1.50;99.90
39019;DHT22;24786;51.984;5.872;2024-01-07T04:17:47;1.50;99.90
39019;DHT22;24786;51.984;5.872;2024-01-07T04:20:13;1.50;99.90
39019;DHT22;24786;51.984;5.872;2024-01-07T04:22:38;1.50;99.90
39019;DHT22;24786;51.984;5.872;2024-01-07T04:25:04;1.50;99.90
39019;DHT22;24786;51.984;5.872;2024-01-07T04:27:36;1.50;99.90
39019;DHT22;24786;51.984;5.872;2024-01-07T04:30:03;1.50;99.90
39019;DHT22;24786;51.984;5.872;2024-01-07T04:32:28;1.50;99.90
39019;DHT22;24786;51.984;5.872;2024-01-07T04:34:54;1.50;99.90
39019;DHT22;24786;51.984;5.872;2024-01-07T04:37:19;1.50;99.90
39019;DHT22;24786;51.984;5.872;2024-01-07T04:39:45;1.50;99.90
39019;DHT22;24786;51.984;5.872;2024-01-07T04:42:10;1.50;99.90
39019;DHT22;24786;51.984;5.872;2024-01-07T04:44:36;1.50;99.90
39019;DHT22;24786;51.984;5.872;2024-01-07T04:47:01;1.40;99.90
39019;DHT22;24786;51.984;5.872;2024-01-07T04:49:26;1.40;99.90
39019;DHT22;24786;51.984;5.872;2024-01-07T04:51:52;1.40;99.90
39019;DHT22;24786;51.984;5.872;2024-01-07T04:54:17;1.40;99.90
39019;DHT22;24786;51.984;5.872;2024-01-07T04:56:44;1.40;99.90
39019;DHT22;24786;51.984;5.872;2024-01-07T04:59:09;1.40;99.90
39019;DHT22;24786;51.984;5.872;2024-01-07T05:01:35;1.40;99.90
39019;DHT22;24786;51.984;5.872;2024-01-07T05:04:01;1.40;99.90
39019;DHT22;24786;51.984;5.872;2024-01-07T05:06:26;1.30;99.90
39019;DHT22;24786;51.984;5.872;2024-01-07T05:08:52;1.30;99.90
39019;DHT22;24786;51.984;5.872;2024-01-07T05:11:17;1.30;99.90
39019;DHT22;24786;51.984;5.872;2024-01-07T05:13:42;1.30;99.90
39019;DHT22;24786;51.984;5.872;2024-01-07T05:16:08;1.30;99.90
39019;DHT22;24786;51.984;5.872;2024-01-07T05:18:33;1.30;99.90
39019;DHT22;24786;51.984;5.872;2024-01-07T05:20:59;1.30;99.90
39019;DHT22;24786;51.984;5.872;2024-01-07T05:23:24;1.30;99.90
39019;DHT22;24786;51.984;5.872;2024-01-07T05:25:50;1.30;99.90
39019;DHT22;24786;51.984;5.872;2024-01-07T05:28:15;1.30;99.90
39019;DHT22;24786;51.984;5.872;2024-01-07T05:30:44;1.30;99.90
39019;DHT22;24786;51.984;5.872;2024-01-07T05:33:09;1.30;99.90
39019;DHT22;24786;51.984;5.872;2024-01-07T05:35:35;1.30;99.90
39019;DHT22;24786;51.984;5.872;2024-01-07T05:38:01;1.30;99.90
39019;DHT22;24786;51.984;5.872;2024-01-07T05:40:26;1.30;99.90
39019;DHT22;24786;51.984;5.872;2024-01-07T05:42:52;1.30;99.90
39019;DHT22;24786;51.984;5.872;2024-01-07T05:45:17;1.30;99.90
39019;DHT22;24786;51.984;5.872;2024-01-07T05:47:42;1.30;99.90
39019;DHT22;24786;51.984;5.872;2024-01-07T05:50:08;1.30;99.90
39019;DHT22;24786;51.984;5.872;2024-01-07T05:52:34;1.30;99.90
39019;DHT22;24786;51.984;5.872;2024-01-07T05:54:59;1.30;99.90
39019;DHT22;24786;51.984;5.872;2024-01-07T05:57:24;1.30;99.90
39019;DHT22;24786;51.984;5.872;2024-01-07T05:59:50;1.30;99.90
39019;DHT22;24786;51.984;5.872;2024-01-07T06:02:16;1.30;99.90
39019;DHT22;24786;51.984;5.872;2024-01-07T06:04:42;1.30;99.90
39019;DHT22;24786;51.984;5.872;2024-01-07T06:07:08;1.30;99.90
39019;DHT22;24786;51.984;5.872;2024-01-07T06:09:33;1.30;99.90
39019;DHT22;24786;51.984;5.872;2024-01-07T06:11:59;1.30;99.90
39019;DHT22;24786;51.984;5.872;2024-01-07T06:14:24;1.30;99.90
39019;DHT22;24786;51.984;5.872;2024-01-07T06:16:50;1.30;99.90
39019;DHT22;24786;51.984;5.872;2024-01-07T06:19:18;1.30;99.90
39019;DHT22;24786;51.984;5.872;2024-01-07T06:21:44;1.30;99.90
39019;DHT22;24786;51.984;5.872;2024-01-07T06:24:10;1.30;99.90
39019;DHT22;24786;51.984;5.872;2024-01-07T06:26:36;1.30;99.90
39019;DHT22;24786;51.984;5.872;2024-01-07T06:29:01;1.30;99.90
39019;DHT22;24786;51.984;5.872;2024-01-07T06:31:27;1.30;99.90
39019;DHT22;24786;51.984;5.872;2024-01-07T06:33:52;1.30;99.90
39019;DHT22;24786;51.984;5.872;2024-01-07T06:36:18;1.20;99.90
39019;DHT22;24786;51.984;5.872;2024-01-07T06:38:44;1.20;99.90
39019;DHT22;24786;51.984;5.872;2024-01-07T06:41:09;1.30;99.90
39019;DHT22;24786;51.984;5.872;2024-01-07T06:43:35;1.30;99.90
39019;DHT22;24786;51.984;5.872;2024-01-07T06:46:00;1.20;99.90
39019;DHT22;24786;51.984;5.872;2024-01-07T06:48:26;1.20;99.90
39019;DHT22;24786;51.984;5.872;2024-01-07T06:50:51;1.20;99.90
39019;DHT22;24786;51.984;5.872;2024-01-07T06:53:17;1.20;99.90
39019;DHT22;24786;51.984;5.872;2024-01-07T06:55:42;1.20;99.90
39019;DHT22;24786;51.984;5.872;2024-01-07T06:58:08;1.20;99.90
39019;DHT22;24786;51.984;5.872;2024-01-07T07:00:33;1.10;99.90
39019;DHT22;24786;51.984;5.872;2024-01-07T07:02:59;1.10;99.90
39019;DHT22;24786;51.984;5.872;2024-01-07T07:05:24;1.10;99.90
39019;DHT22;24786;51.984;5.872;2024-01-07T07:07:50;1.10;99.90
39019;DHT22;24786;51.984;5.872;2024-01-07T07:10:15;1.10;99.90
39019;DHT22;24786;51.984;5.872;2024-01-07T07:12:41;1.10;99.90
39019;DHT22;24786;51.984;5.872;2024-01-07T07:15:06;1.10;99.90
39019;DHT22;24786;51.984;5.872;2024-01-07T07:17:32;1.10;99.90
39019;DHT22;24786;51.984;5.872;2024-01-07T07:19:57;1.10;99.90
39019;DHT22;24786;51.984;5.872;2024-01-07T07:22:23;1.10;99.90
39019;DHT22;24786;51.984;5.872;2024-01-07T07:24:48;1.10;99.90
39019;DHT22;24786;51.984;5.872;2024-01-07T07:27:13;1.10;99.90
39019;DHT22;24786;51.984;5.872;2024-01-07T07:29:39;1.10;99.90
39019;DHT22;24786;51.984;5.872;2024-01-07T07:32:04;1.10;99.90
39019;DHT22;24786;51.984;5.872;2024-01-07T07:34:30;1.10;99.90
39019;DHT22;24786;51.984;5.872;2024-01-07T07:36:56;1.10;99.90
39019;DHT22;24786;51.984;5.872;2024-01-07T07:39:21;1.10;99.90
39019;DHT22;24786;51.984;5.872;2024-01-07T07:41:47;1.10;99.90
39019;DHT22;24786;51.984;5.872;2024-01-07T07:44:13;1.10;99.90
39019;DHT22;24786;51.984;5.872;2024-01-07T07:46:38;1.10;99.90
39019;DHT22;24786;51.984;5.872;2024-01-07T07:49:04;1.10;99.90
39019;DHT22;24786;51.984;5.872;2024-01-07T07:51:29;1.00;99.90
39019;DHT22;24786;51.984;5.872;2024-01-07T07:53:55;1.10;99.90
39019;DHT22;24786;51.984;5.872;2024-01-07T07:56:21;1.00;99.90
39019;DHT22;24786;51.984;5.872;2024-01-07T07:58:46;1.00;99.90
39019;DHT22;24786;51.984;5.872;2024-01-07T08:01:11;1.00;99.90
39019;DHT22;24786;51.984;5.872;2024-01-07T08:03:37;1.00;99.90
39019;DHT22;24786;51.984;5.872;2024-01-07T08:06:02;1.00;99.90
39019;DHT22;24786;51.984;5.872;2024-01-07T08:08:28;1.00;99.90
39019;DHT22;24786;51.984;5.872;2024-01-07T08:10:53;1.10;99.90
39019;DHT22;24786;51.984;5.872;2024-01-07T08:13:22;1.00;99.90
39019;DHT22;24786;51.984;5.872;2024-01-07T08:15:47;1.10;99.90
39019;DHT22;24786;51.984;5.872;2024-01-07T08:18:13;1.10;99.90
39019;DHT22;24786;51.984;5.872;2024-01-07T08:20:38;1.10;99.90
39019;DHT22;24786;51.984;5.872;2024-01-07T08:23:19;1.10;99.90
39019;DHT22;24786;51.984;5.872;2024-01-07T08:25:45;1.10;99.90
39019;DHT22;24786;51.984;5.872;2024-01-07T08:28:10;1.10;99.90
39019;DHT22;24786;51.984;5.872;2024-01-07T08:30:36;1.00;99.90
39019;DHT22;24786;51.984;5.872;2024-01-07T08:33:01;1.00;99.90
39019;DHT22;24786;51.984;5.872;2024-01-07T08:35:27;1.00;99.90
39019;DHT22;24786;51.984;5.872;2024-01-07T08:37:52;1.00;99.90
39019;DHT22;24786;51.984;5.872;2024-01-07T08:40:18;1.00;99.90
39019;DHT22;24786;51.984;5.872;2024-01-07T08:42:44;0.90;99.90
39019;DHT22;24786;51.984;5.872;2024-01-07T08:45:13;0.90;99.90
39019;DHT22;24786;51.984;5.872;2024-01-07T08:47:38;0.90;99.90
39019;DHT22;24786;51.984;5.872;2024-01-07T08:50:08;0.80;99.90
39019;DHT22;24786;51.984;5.872;2024-01-07T08:52:33;0.90;99.90
39019;DHT22;24786;51.984;5.872;2024-01-07T08:55:01;0.80;99.90
39019;DHT22;24786;51.984;5.872;2024-01-07T08:57:27;0.80;99.90
39019;DHT22;24786;51.984;5.872;2024-01-07T08:59:52;0.80;99.90
39019;DHT22;24786;51.984;5.872;2024-01-07T09:02:18;0.90;99.90
39019;DHT22;24786;51.984;5.872;2024-01-07T09:04:43;0.90;99.90
39019;DHT22;24786;51.984;5.872;2024-01-07T09:07:09;0.90;99.90
39019;DHT22;24786;51.984;5.872;2024-01-07T09:09:34;0.80;99.90
39019;DHT22;24786;51.984;5.872;2024-01-07T09:12:00;0.80;99.90
39019;DHT22;24786;51.984;5.872;2024-01-07T09:14:25;0.80;99.90
39019;DHT22;24786;51.984;5.872;2024-01-07T09:16:51;0.80;99.90
39019;DHT22;24786;51.984;5.872;2024-01-07T09:19:16;0.80;99.90
39019;DHT22;24786;51.984;5.872;2024-01-07T09:21:43;0.80;99.90
39019;DHT22;24786;51.984;5.872;2024-01-07T09:24:09;0.80;99.90
39019;DHT22;24786;51.984;5.872;2024-01-07T09:26:34;0.80;99.90
39019;DHT22;24786;51.984;5.872;2024-01-07T09:29:00;0.80;99.90
39019;DHT22;24786;51.984;5.872;2024-01-07T09:31:28;0.80;99.90
39019;DHT22;24786;51.984;5.872;2024-01-07T09:33:53;0.80;99.90
39019;DHT22;24786;51.984;5.872;2024-01-07T09:36:19;0.80;99.90
39019;DHT22;24786;51.984;5.872;2024-01-07T09:38:44;0.90;99.90
39019;DHT22;24786;51.984;5.872;2024-01-07T09:41:10;0.80;99.90
39019;DHT22;24786;51.984;5.872;2024-01-07T09:43:35;0.90;99.90
39019;DHT22;24786;51.984;5.872;2024-01-07T09:46:01;0.90;99.90
39019;DHT22;24786;51.984;5.872;2024-01-07T09:48:27;1.00;99.90
39019;DHT22;24786;51.984;5.872;2024-01-07T09:50:52;1.00;99.90
39019;DHT22;24786;51.984;5.872;2024-01-07T09:53:19;1.00;99.90
39019;DHT22;24786;51.984;5.872;2024-01-07T09:58:14;1.00;99.90
39019;DHT22;24786;51.984;5.872;2024-01-07T10:00:39;1.00;99.90
39019;DHT22;24786;51.984;5.872;2024-01-07T10:03:05;1.00;99.90
39019;DHT22;24786;51.984;5.872;2024-01-07T10:05:30;1.00;99.90
39019;DHT22;24786;51.984;5.872;2024-01-07T10:07:56;1.00;99.90
39019;DHT22;24786;51.984;5.872;2024-01-07T10:10:22;1.00;99.90
39019;DHT22;24786;51.984;5.872;2024-01-07T10:12:48;1.00;99.90
39019;DHT22;24786;51.984;5.872;2024-01-07T10:15:13;1.00;99.90
39019;DHT22;24786;51.984;5.872;2024-01-07T10:17:40;1.00;99.90
39019;DHT22;24786;51.984;5.872;2024-01-07T10:20:05;1.00;99.90
39019;DHT22;24786;51.984;5.872;2024-01-07T10:22:34;1.00;99.90
39019;DHT22;24786;51.984;5.872;2024-01-07T10:24:59;1.00;99.90
39019;DHT22;24786;51.984;5.872;2024-01-07T10:27:25;1.00;99.90
39019;DHT22;24786;51.984;5.872;2024-01-07T10:29:50;1.10;99.90
39019;DHT22;24786;51.984;5.872;2024-01-07T10:32:17;1.10;99.90
39019;DHT22;24786;51.984;5.872;2024-01-07T10:34:44;1.10;99.90
39019;DHT22;24786;51.984;5.872;2024-01-07T10:37:11;1.10;99.90
39019;DHT22;24786;51.984;5.872;2024-01-07T10:39:36;1.00;99.90
39019;DHT22;24786;51.984;5.872;2024-01-07T10:42:02;1.00;99.90
39019;DHT22;24786;51.984;5.872;2024-01-07T10:44:31;1.00;99.90
39019;DHT22;24786;51.984;5.872;2024-01-07T10:46:57;1.00;99.90
39019;DHT22;24786;51.984;5.872;2024-01-07T10:49:23;1.00;99.90
39019;DHT22;24786;51.984;5.872;2024-01-07T10:52:02;1.00;99.90
39019;DHT22;24786;51.984;5.872;2024-01-07T10:54:32;1.00;99.90
39019;DHT22;24786;51.984;5.872;2024-01-07T10:56:59;1.10;99.90
39019;DHT22;24786;51.984;5.872;2024-01-07T10:59:26;1.10;99.90
39019;DHT22;24786;51.984;5.872;2024-01-07T11:05:27;1.20;99.90
39019;DHT22;24786;51.984;5.872;2024-01-07T11:07:35;1.20;99.90
39019;DHT22;24786;51.984;5.872;2024-01-07T11:12:31;1.20;99.90
39019;DHT22;24786;51.984;5.872;2024-01-07T11:15:03;1.30;99.90
39019;DHT22;24786;51.984;5.872;2024-01-07T11:17:43;1.30;99.90
39019;DHT22;24786;51.984;5.872;2024-01-07T11:20:12;1.30;99.90
39019;DHT22;24786;51.984;5.872;2024-01-07T11:22:45;1.30;99.90
39019;DHT22;24786;51.984;5.872;2024-01-07T11:28:00;1.20;99.90
39019;DHT22;24786;51.984;5.872;2024-01-07T11:30:26;1.20;99.90
39019;DHT22;24786;51.984;5.872;2024-01-07T11:32:58;1.20;99.90
39019;DHT22;24786;51.984;5.872;2024-01-07T11:38:08;1.40;99.90
39019;DHT22;24786;51.984;5.872;2024-01-07T11:40:33;1.40;99.90
39019;DHT22;24786;51.984;5.872;2024-01-07T11:42:59;1.40;99.90
39019;DHT22;24786;51.984;5.872;2024-01-07T11:45:24;1.40;99.90
39019;DHT22;24786;51.984;5.872;2024-01-07T11:47:50;1.30;99.90
39019;DHT22;24786;51.984;5.872;2024-01-07T11:50:15;1.20;99.90
39019;DHT22;24786;51.984;5.872;2024-01-07T11:52:41;1.20;99.90
39019;DHT22;24786;51.984;5.872;2024-01-07T11:55:07;1.20;99.90
39019;DHT22;24786;51.984;5.872;2024-01-07T11:57:33;1.20;99.90
39019;DHT22;24786;51.984;5.872;2024-01-07T12:00:00;1.20;99.90
39019;DHT22;24786;51.984;5.872;2024-01-07T12:02:25;1.20;99.90
39019;DHT22;24786;51.984;5.872;2024-01-07T12:04:55;1.20;99.90
39019;DHT22;24786;51.984;5.872;2024-01-07T12:07:20;1.20;99.90
39019;DHT22;24786;51.984;5.872;2024-01-07T12:09:46;1.30;99.90
39019;DHT22;24786;51.984;5.872;2024-01-07T12:12:14;1.40;99.90
39019;DHT22;24786;51.984;5.872;2024-01-07T12:14:40;1.40;99.90
39019;DHT22;24786;51.984;5.872;2024-01-07T12:17:08;1.50;99.90
39019;DHT22;24786;51.984;5.872;2024-01-07T12:19:35;1.60;99.90
39019;DHT22;24786;51.984;5.872;2024-01-07T12:22:02;1.60;99.90
39019;DHT22;24786;51.984;5.872;2024-01-07T12:24:31;1.60;99.90
39019;DHT22;24786;51.984;5.872;2024-01-07T12:27:03;1.70;99.90
39019;DHT22;24786;51.984;5.872;2024-01-07T12:29:28;1.80;99.90
39019;DHT22;24786;51.984;5.872;2024-01-07T12:31:54;1.80;99.90
39019;DHT22;24786;51.984;5.872;2024-01-07T12:34:20;1.80;99.90
39019;DHT22;24786;51.984;5.872;2024-01-07T12:36:48;1.80;99.90
39019;DHT22;24786;51.984;5.872;2024-01-07T12:39:14;1.70;99.90
39019;DHT22;24786;51.984;5.872;2024-01-07T12:41:39;1.70;99.90
39019;DHT22;24786;51.984;5.872;2024-01-07T12:44:04;1.60;99.90
39019;DHT22;24786;51.984;5.872;2024-01-07T12:46:30;1.50;99.90
39019;DHT22;24786;51.984;5.872;2024-01-07T12:48:56;1.40;99.90
39019;DHT22;24786;51.984;5.872;2024-01-07T12:51:22;1.30;99.90
39019;DHT22;24786;51.984;5.872;2024-01-07T12:53:47;1.30;99.90
39019;DHT22;24786;51.984;5.872;2024-01-07T12:56:13;1.40;99.90
39019;DHT22;24786;51.984;5.872;2024-01-07T12:58:38;1.40;99.90
39019;DHT22;24786;51.984;5.872;2024-01-07T13:01:04;1.50;99.90
39019;DHT22;24786;51.984;5.872;2024-01-07T13:03:29;1.60;99.90
39019;DHT22;24786;51.984;5.872;2024-01-07T13:05:55;1.70;99.90
39019;DHT22;24786;51.984;5.872;2024-01-07T13:08:20;1.80;99.90
39019;DHT22;24786;51.984;5.872;2024-01-07T13:10:51;1.90;99.90
39019;DHT22;24786;51.984;5.872;2024-01-07T13:13:17;1.90;99.90
39019;DHT22;24786;51.984;5.872;2024-01-07T13:15:43;1.90;99.90
39019;DHT22;24786;51.984;5.872;2024-01-07T13:18:09;1.80;99.90
39019;DHT22;24786;51.984;5.872;2024-01-07T13:20:38;1.80;99.90
39019;DHT22;24786;51.984;5.872;2024-01-07T13:23:07;1.70;99.90
39019;DHT22;24786;51.984;5.872;2024-01-07T13:25:32;1.60;99.90
39019;DHT22;24786;51.984;5.872;2024-01-07T13:27:58;1.60;99.90
39019;DHT22;24786;51.984;5.872;2024-01-07T13:30:24;1.50;99.90
39019;DHT22;24786;51.984;5.872;2024-01-07T13:32:50;1.60;99.90
39019;DHT22;24786;51.984;5.872;2024-01-07T13:35:17;1.60;99.90
39019;DHT22;24786;51.984;5.872;2024-01-07T13:37:42;1.70;99.90
39019;DHT22;24786;51.984;5.872;2024-01-07T13:42:58;1.60;99.90
39019;DHT22;24786;51.984;5.872;2024-01-07T13:45:24;1.70;99.90
39019;DHT22;24786;51.984;5.872;2024-01-07T13:47:59;1.70;99.90
39019;DHT22;24786;51.984;5.872;2024-01-07T13:50:24;1.80;99.90
39019;DHT22;24786;51.984;5.872;2024-01-07T13:52:50;1.80;99.90
39019;DHT22;24786;51.984;5.872;2024-01-07T13:55:16;1.80;99.90
39019;DHT22;24786;51.984;5.872;2024-01-07T13:57:41;1.80;99.90
39019;DHT22;24786;51.984;5.872;2024-01-07T14:00:07;1.80;99.90
39019;DHT22;24786;51.984;5.872;2024-01-07T14:02:36;1.80;99.90
39019;DHT22;24786;51.984;5.872;2024-01-07T14:05:04;1.90;99.90
39019;DHT22;24786;51.984;5.872;2024-01-07T14:07:34;1.90;99.90
39019;DHT22;24786;51.984;5.872;2024-01-07T14:09:59;1.90;99.90
39019;DHT22;24786;51.984;5.872;2024-01-07T14:12:27;1.90;99.90
39019;DHT22;24786;51.984;5.872;2024-01-07T14:14:54;1.90;99.90
39019;DHT22;24786;51.984;5.872;2024-01-07T14:17:19;1.90;99.90
39019;DHT22;24786;51.984;5.872;2024-01-07T14:19:46;1.80;99.90
39019;DHT22;24786;51.984;5.872;2024-01-07T14:22:13;1.80;99.90
39019;DHT22;24786;51.984;5.872;2024-01-07T14:24:39;1.70;99.90
39019;DHT22;24786;51.984;5.872;2024-01-07T14:27:04;1.70;99.90
39019;DHT22;24786;51.984;5.872;2024-01-07T14:29:29;1.70;99.90
39019;DHT22;24786;51.984;5.872;2024-01-07T14:31:55;1.60;99.90
39019;DHT22;24786;51.984;5.872;2024-01-07T14:34:20;1.70;99.90
39019;DHT22;24786;51.984;5.872;2024-01-07T14:36:46;1.70;99.90
39019;DHT22;24786;51.984;5.872;2024-01-07T14:39:12;1.80;99.90
39019;DHT22;24786;51.984;5.872;2024-01-07T14:41:39;1.60;99.90
39019;DHT22;24786;51.984;5.872;2024-01-07T14:44:04;1.60;99.90
39019;DHT22;24786;51.984;5.872;2024-01-07T14:46:30;1.50;99.90
39019;DHT22;24786;51.984;5.872;2024-01-07T14:48:55;1.50;99.90
39019;DHT22;24786;51.984;5.872;2024-01-07T14:51:21;1.50;99.90
39019;DHT22;24786;51.984;5.872;2024-01-07T14:53:46;1.40;99.90
39019;DHT22;24786;51.984;5.872;2024-01-07T14:56:12;1.40;99.90
39019;DHT22;24786;51.984;5.872;2024-01-07T14:58:37;1.40;99.90
39019;DHT22;24786;51.984;5.872;2024-01-07T15:01:06;1.40;99.90
39019;DHT22;24786;51.984;5.872;2024-01-07T15:03:32;1.30;99.90
39019;DHT22;24786;51.984;5.872;2024-01-07T15:05:57;1.30;99.90
39019;DHT22;24786;51.984;5.872;2024-01-07T15:08:23;1.30;99.90
39019;DHT22;24786;51.984;5.872;2024-01-07T15:10:48;1.20;99.90
39019;DHT22;24786;51.984;5.872;2024-01-07T15:13:14;1.20;99.90
39019;DHT22;24786;51.984;5.872;2024-01-07T15:15:39;1.20;99.90
39019;DHT22;24786;51.984;5.872;2024-01-07T15:18:05;1.10;99.90
39019;DHT22;24786;51.984;5.872;2024-01-07T15:20:30;1.00;99.90
39019;DHT22;24786;51.984;5.872;2024-01-07T15:22:56;1.10;99.90
39019;DHT22;24786;51.984;5.872;2024-01-07T15:25:21;1.00;99.90
39019;DHT22;24786;51.984;5.872;2024-01-07T15:27:47;1.00;99.90
39019;DHT22;24786;51.984;5.872;2024-01-07T15:30:12;0.90;99.90
39019;DHT22;24786;51.984;5.872;2024-01-07T15:32:38;0.90;99.90
39019;DHT22;24786;51.984;5.872;2024-01-07T15:35:04;0.90;99.90
39019;DHT22;24786;51.984;5.872;2024-01-07T15:37:30;0.90;99.90
39019;DHT22;24786;51.984;5.872;2024-01-07T15:39:56;0.80;99.90
39019;DHT22;24786;51.984;5.872;2024-01-07T15:42:22;0.80;99.90
39019;DHT22;24786;51.984;5.872;2024-01-07T15:44:48;0.80;99.90
39019;DHT22;24786;51.984;5.872;2024-01-07T15:47:15;0.80;99.90
39019;DHT22;24786;51.984;5.872;2024-01-07T15:49:40;0.80;99.90
39019;DHT22;24786;51.984;5.872;2024-01-07T15:52:06;0.70;99.90